createdAt,value
2024-01-17T00:00:19.749Z,1.62
2024-01-17T00:02:46.969Z,1.61
2024-01-17T00:05:13.921Z,1.57
2024-01-17T00:07:41.094Z,1.47
2024-01-17T00:10:09.923Z,1.43
2024-01-17T00:12:36.830Z,1.36
2024-01-17T00:15:04.411Z,1.30
2024-01-17T00:17:31.430Z,1.32
2024-01-17T00:19:58.703Z,1.33
2024-01-17T00:22:25.751Z,1.34
2024-01-17T00:24:52.958Z,1.39
2024-01-17T00:27:24.192Z,1.46
2024-01-17T00:29:58.463Z,1.48
2024-01-17T00:32:26.666Z,1.45
2024-01-17T00:34:54.552Z,1.40
2024-01-17T00:37:21.641Z,1.35
2024-01-17T00:39:48.790Z,1.35
2024-01-17T00:42:16.355Z,1.36
2024-01-17T00:44:43.463Z,1.39
2024-01-17T00:47:10.852Z,1.44
2024-01-17T00:49:41.085Z,1.51
2024-01-17T00:52:09.045Z,1.57
2024-01-17T00:54:35.800Z,1.64
2024-01-17T00:57:02.756Z,1.70
2024-01-17T00:59:29.918Z,1.78
2024-01-17T01:01:56.853Z,1.81
2024-01-17T01:04:23.561Z,1.84
2024-01-17T01:06:50.411Z,1.89
2024-01-17T01:09:17.221Z,1.90
2024-01-17T01:11:44.483Z,1.89
2024-01-17T01:14:11.965Z,1.81
2024-01-17T01:16:38.796Z,1.74
2024-01-17T01:19:06.347Z,1.72
2024-01-17T01:21:33.729Z,1.72
2024-01-17T01:24:00.670Z,1.74
2024-01-17T01:26:27.734Z,1.75
2024-01-17T01:28:54.572Z,1.76
2024-01-17T01:31:21.396Z,1.79
2024-01-17T01:33:48.528Z,1.85
2024-01-17T01:36:15.827Z,1.90
2024-01-17T01:38:42.826Z,1.95
2024-01-17T01:41:09.691Z,1.98
2024-01-17T01:43:36.475Z,1.99
2024-01-17T01:46:21.658Z,1.96
2024-01-17T01:48:50.008Z,1.93
2024-01-17T01:51:18.069Z,1.91
2024-01-17T01:53:48.539Z,1.89
2024-01-17T01:56:19.243Z,1.88
2024-01-17T01:58:49.477Z,1.84
2024-01-17T02:01:18.491Z,1.84
2024-01-17T02:03:46.582Z,1.87
2024-01-17T02:06:15.209Z,1.89
2024-01-17T02:08:41.843Z,1.91
2024-01-17T02:11:09.858Z,1.92
2024-01-17T02:13:37.210Z,1.93
2024-01-17T02:16:04.604Z,1.91
2024-01-17T02:18:31.577Z,1.88
2024-01-17T02:20:58.772Z,1.88
2024-01-17T02:23:27.693Z,1.87
2024-01-17T02:25:56.884Z,1.86
2024-01-17T02:28:25.929Z,1.82
2024-01-17T02:30:53.322Z,1.80
2024-01-17T02:33:21.234Z,1.80
2024-01-17T02:35:48.068Z,1.81
2024-01-17T02:38:14.996Z,1.82
2024-01-17T02:40:42.327Z,1.87
2024-01-17T02:43:09.389Z,1.91
2024-01-17T02:45:36.726Z,1.95
2024-01-17T02:48:04.094Z,1.94
2024-01-17T02:50:31.203Z,1.91
2024-01-17T02:52:57.990Z,1.89
2024-01-17T02:55:25.032Z,1.86
2024-01-17T02:57:52.788Z,1.84
2024-01-17T03:00:20.740Z,1.83
2024-01-17T03:02:48.213Z,1.87
2024-01-17T03:05:15.426Z,1.90
2024-01-17T03:07:42.541Z,1.94
2024-01-17T03:10:12.642Z,1.97
2024-01-17T03:12:43.272Z,2.02
2024-01-17T03:15:11.518Z,2.03
2024-01-17T03:17:38.885Z,2.01
2024-01-17T03:20:07.525Z,1.99
2024-01-17T03:22:34.455Z,1.97
2024-01-17T03:25:01.316Z,1.96
2024-01-17T03:27:28.446Z,1.95
2024-01-17T03:29:56.543Z,1.92
2024-01-17T03:32:23.571Z,1.90
2024-01-17T03:34:52.492Z,1.86
2024-01-17T03:37:19.827Z,1.76
2024-01-17T03:39:46.893Z,1.67
2024-01-17T03:42:16.726Z,1.52
2024-01-17T03:44:47.888Z,1.36
2024-01-17T03:47:14.901Z,1.27
2024-01-17T03:49:42.053Z,1.22
2024-01-17T03:52:09.461Z,1.14
2024-01-17T03:54:37.262Z,1.07
2024-01-17T03:57:05.872Z,1.00
2024-01-17T03:59:33.126Z,0.96
2024-01-17T04:02:00.260Z,0.95
2024-01-17T04:04:27.307Z,0.95
2024-01-17T04:06:54.898Z,0.95
2024-01-17T04:09:21.876Z,0.98
2024-01-17T04:11:49.106Z,1.03
2024-01-17T04:14:16.462Z,1.06
2024-01-17T04:16:43.629Z,1.10
2024-01-17T04:19:11.342Z,1.10
2024-01-17T04:21:38.235Z,1.11
2024-01-17T04:24:05.851Z,1.14
2024-01-17T04:26:33.046Z,1.17
2024-01-17T04:29:00.581Z,1.23
2024-01-17T04:31:29.739Z,1.28
2024-01-17T04:33:59.428Z,1.34
2024-01-17T04:36:30.838Z,1.38
2024-01-17T04:38:58.833Z,1.43
2024-01-17T04:41:25.808Z,1.48
2024-01-17T04:43:52.886Z,1.52
2024-01-17T04:46:19.881Z,1.58
2024-01-17T04:48:46.969Z,1.64
2024-01-17T04:51:15.141Z,1.70
2024-01-17T04:53:45.932Z,1.77
2024-01-17T04:56:14.527Z,1.79
2024-01-17T04:58:41.721Z,1.83
2024-01-17T05:01:09.617Z,1.87
2024-01-17T05:03:37.508Z,1.88
2024-01-17T05:06:06.755Z,1.89
2024-01-17T05:08:33.774Z,1.89
2024-01-17T05:11:01.394Z,1.88
2024-01-17T05:13:29.350Z,1.88
2024-01-17T05:15:57.324Z,1.87
2024-01-17T05:18:24.754Z,1.84
2024-01-17T05:20:51.857Z,1.81
2024-01-17T05:23:18.649Z,1.78
2024-01-17T05:25:45.604Z,1.78
2024-01-17T05:28:12.445Z,1.76
2024-01-17T05:30:39.507Z,1.74
2024-01-17T05:33:07.219Z,1.72
2024-01-17T05:35:34.930Z,1.69
2024-01-17T05:38:02.093Z,1.62
2024-01-17T05:40:29.403Z,1.58
2024-01-17T05:42:56.890Z,1.58
2024-01-17T05:45:24.452Z,1.57
2024-01-17T05:47:51.507Z,1.56
2024-01-17T05:50:19.086Z,1.56
2024-01-17T05:52:51.985Z,1.58
2024-01-17T05:55:20.925Z,1.62
2024-01-17T05:57:47.916Z,1.66
2024-01-17T06:00:15.323Z,1.70
2024-01-17T06:02:46.912Z,1.75
2024-01-17T06:05:13.851Z,1.78
2024-01-17T06:07:41.770Z,1.79
2024-01-17T06:10:09.924Z,1.80
2024-01-17T06:12:36.703Z,1.82
2024-01-17T06:15:04.434Z,1.82
2024-01-17T06:17:31.311Z,1.81
2024-01-17T06:19:58.679Z,1.80
2024-01-17T06:22:25.635Z,1.77
2024-01-17T06:24:52.712Z,1.75
2024-01-17T06:27:19.982Z,1.73
2024-01-17T06:29:47.564Z,1.73
2024-01-17T06:32:14.736Z,1.74
2024-01-17T06:34:42.343Z,1.75
2024-01-17T06:37:09.226Z,1.77
2024-01-17T06:39:36.833Z,1.77
2024-01-17T06:42:04.632Z,1.76
2024-01-17T06:44:32.260Z,1.75
2024-01-17T06:46:59.437Z,1.74
2024-01-17T06:49:27.226Z,1.71
2024-01-17T06:51:56.758Z,1.70
2024-01-17T06:54:24.109Z,1.72
2024-01-17T06:56:52.513Z,1.74
2024-01-17T06:59:19.322Z,1.77
2024-01-17T07:01:46.551Z,1.79
2024-01-17T07:04:13.200Z,1.80
2024-01-17T07:06:39.972Z,1.84
2024-01-17T07:09:08.784Z,1.88
2024-01-17T07:11:35.780Z,1.89
2024-01-17T07:14:02.530Z,1.93
2024-01-17T07:16:29.394Z,1.97
2024-01-17T07:18:58.418Z,2.01
2024-01-17T07:21:25.458Z,2.04
2024-01-17T07:23:53.061Z,2.06
2024-01-17T07:26:19.754Z,2.08
2024-01-17T07:28:46.347Z,2.12
2024-01-17T07:31:13.250Z,2.17
2024-01-17T07:33:40.101Z,2.20
2024-01-17T07:36:07.172Z,2.26
2024-01-17T07:38:33.848Z,2.25
2024-01-17T07:41:00.543Z,2.22
2024-01-17T07:43:27.224Z,2.22
2024-01-17T07:45:53.749Z,2.21
2024-01-17T07:48:20.620Z,2.21
2024-01-17T07:50:48.031Z,2.23
2024-01-17T07:53:14.618Z,2.25
2024-01-17T07:55:41.292Z,2.26
2024-01-17T07:58:08.593Z,2.30
2024-01-17T08:00:35.220Z,2.35
2024-01-17T08:03:01.890Z,2.41
2024-01-17T08:05:30.054Z,2.42
2024-01-17T08:07:56.873Z,2.45
2024-01-17T08:10:23.825Z,2.48
2024-01-17T08:12:50.492Z,2.49
2024-01-17T08:15:17.206Z,2.49
2024-01-17T08:17:45.449Z,2.50
2024-01-17T08:20:13.535Z,2.50
2024-01-17T08:22:41.553Z,2.54
2024-01-17T08:25:08.707Z,2.56
2024-01-17T08:27:35.573Z,2.58
2024-01-17T08:30:05.408Z,2.62
2024-01-17T08:32:32.291Z,2.62
2024-01-17T08:34:58.959Z,2.59
2024-01-17T08:37:25.607Z,2.58
2024-01-17T08:39:52.269Z,2.55
2024-01-17T08:42:19.010Z,2.49
2024-01-17T08:44:46.453Z,2.46
2024-01-17T08:47:13.048Z,2.47
2024-01-17T08:49:42.830Z,2.49
2024-01-17T08:52:09.609Z,2.52
2024-01-17T08:54:36.320Z,2.54
2024-01-17T08:57:03.792Z,2.57
2024-01-17T08:59:34.349Z,2.57
2024-01-17T09:02:01.208Z,2.58
2024-01-17T09:04:29.646Z,2.60
2024-01-17T09:06:56.678Z,2.62
2024-01-17T09:09:26.248Z,2.69
2024-01-17T09:11:56.472Z,2.77
2024-01-17T09:14:25.121Z,2.86
2024-01-17T09:16:52.800Z,2.97
2024-01-17T09:19:23.074Z,3.05
2024-01-17T09:21:52.478Z,3.13
2024-01-17T09:24:20.992Z,3.19
2024-01-17T09:26:50.413Z,3.25
2024-01-17T09:29:17.136Z,3.29
2024-01-17T09:31:43.886Z,3.32
2024-01-17T09:34:10.478Z,3.33
2024-01-17T09:36:37.190Z,3.36
2024-01-17T09:39:04.003Z,3.37
2024-01-17T09:41:30.857Z,3.34
2024-01-17T09:43:57.824Z,3.31
2024-01-17T09:46:24.661Z,3.25
2024-01-17T09:48:51.680Z,3.20
2024-01-17T09:51:24.301Z,3.17
2024-01-17T09:53:54.123Z,3.13
2024-01-17T09:56:22.578Z,3.06
2024-01-17T09:58:53.542Z,3.00
2024-01-17T10:01:21.333Z,2.97
2024-01-17T10:03:49.930Z,2.93
2024-01-17T10:06:17.159Z,2.87
2024-01-17T10:08:47.031Z,2.79
2024-01-17T10:11:14.598Z,2.73
2024-01-17T10:13:41.222Z,2.61
2024-01-17T10:16:09.195Z,2.49
2024-01-17T10:21:55.516Z,2.28
2024-01-17T10:24:23.262Z,2.19
2024-01-17T10:26:53.344Z,2.14
2024-01-17T10:29:21.054Z,2.13
2024-01-17T10:31:48.719Z,2.13
2024-01-17T10:34:17.006Z,2.13
2024-01-17T10:36:46.072Z,2.12
2024-01-17T10:39:13.817Z,2.11
2024-01-17T10:41:52.891Z,2.09
2024-01-17T10:44:20.720Z,2.09
2024-01-17T10:46:56.365Z,2.07
2024-01-17T10:49:25.365Z,2.06
2024-01-17T10:52:06.973Z,2.06
2024-01-17T10:55:00.486Z,2.07
2024-01-17T10:57:30.429Z,2.04
2024-01-17T11:00:05.658Z,2.05
2024-01-17T11:02:36.831Z,2.04
2024-01-17T11:05:11.617Z,2.07
2024-01-17T11:07:40.880Z,2.09
2024-01-17T11:10:10.939Z,2.07
2024-01-17T11:12:39.176Z,2.05
2024-01-17T11:15:08.921Z,2.04
2024-01-17T11:17:38.932Z,2.04
2024-01-17T11:20:10.583Z,2.06
2024-01-17T11:22:40.049Z,2.07
2024-01-17T11:25:46.183Z,2.09
2024-01-17T11:28:27.090Z,2.16
2024-01-17T11:30:57.592Z,2.21
2024-01-17T11:33:27.748Z,2.27
2024-01-17T11:35:55.498Z,2.31
2024-01-17T11:38:23.035Z,2.36
2024-01-17T11:41:11.382Z,2.39
2024-01-17T11:43:43.430Z,2.43
2024-01-17T11:46:12.811Z,2.45
2024-01-17T11:48:42.622Z,2.49
2024-01-17T11:51:13.505Z,2.54
2024-01-17T11:53:48.220Z,2.61
2024-01-17T11:56:17.428Z,2.69
2024-01-17T11:58:47.373Z,2.64
2024-01-17T12:01:38.163Z,2.57
2024-01-17T12:04:22.176Z,2.47
2024-01-17T12:06:52.074Z,2.40
2024-01-17T12:09:23.442Z,2.39
2024-01-17T12:11:54.145Z,2.44
2024-01-17T12:14:21.954Z,2.48
2024-01-17T12:16:51.547Z,2.52
2024-01-17T12:19:19.941Z,2.58
2024-01-17T12:21:47.694Z,2.63
2024-01-17T12:24:16.676Z,2.67
2024-01-17T12:26:44.893Z,2.73
2024-01-17T12:29:15.998Z,2.77
2024-01-17T12:31:43.594Z,2.82
2024-01-17T12:34:12.828Z,2.87
2024-01-17T12:36:40.846Z,2.93
2024-01-17T12:39:10.624Z,2.97
2024-01-17T12:41:39.211Z,2.99
2024-01-17T12:44:09.367Z,2.97
2024-01-17T12:46:37.414Z,2.95
2024-01-17T12:49:05.478Z,2.95
2024-01-17T12:51:35.620Z,2.94
2024-01-17T12:54:06.495Z,2.95
2024-01-17T12:56:35.393Z,2.98
2024-01-17T12:59:04.228Z,3.03
2024-01-17T13:01:36.083Z,3.10
2024-01-17T13:04:05.412Z,3.18
2024-01-17T13:07:00.838Z,3.26
2024-01-17T13:09:31.425Z,3.32
2024-01-17T13:12:01.998Z,3.37
2024-01-17T13:14:31.970Z,3.44
2024-01-17T13:16:59.524Z,3.49
2024-01-17T13:19:27.021Z,3.49
2024-01-17T13:21:54.458Z,3.50
2024-01-17T13:24:23.862Z,3.53
2024-01-17T13:26:51.534Z,3.55
2024-01-17T13:29:19.359Z,3.59
2024-01-17T13:31:47.189Z,3.63
2024-01-17T13:34:15.096Z,3.67
2024-01-17T13:36:43.291Z,3.71
2024-01-17T13:39:11.724Z,3.75
2024-01-17T13:41:39.384Z,3.78
2024-01-17T13:44:06.925Z,3.81
2024-01-17T13:46:37.348Z,3.84
2024-01-17T13:49:07.693Z,3.86
2024-01-17T13:51:38.881Z,3.86
2024-01-17T13:54:16.665Z,3.87
2024-01-17T13:56:45.323Z,3.88
2024-01-17T13:59:13.239Z,3.89
2024-01-17T14:01:41.108Z,3.90
2024-01-17T14:04:08.935Z,3.90
2024-01-17T14:06:37.119Z,3.91
2024-01-17T14:09:09.301Z,3.90
2024-01-17T14:11:40.714Z,3.87
2024-01-17T14:14:13.110Z,3.85
2024-01-17T14:16:42.764Z,3.82
2024-01-17T14:19:11.681Z,3.81
2024-01-17T14:21:39.492Z,3.78
2024-01-17T14:24:08.284Z,3.74
2024-01-17T14:26:36.449Z,3.72
2024-01-17T14:29:04.719Z,3.69
2024-01-17T14:31:32.182Z,3.61
2024-01-17T14:34:00.258Z,3.52
2024-01-17T14:36:28.088Z,3.43
2024-01-17T14:38:56.001Z,3.32
2024-01-17T14:41:25.908Z,3.21
2024-01-17T14:43:54.748Z,3.14
2024-01-17T14:46:22.623Z,3.08
2024-01-17T14:48:50.577Z,3.06
2024-01-17T14:51:18.565Z,3.04
2024-01-17T14:53:46.468Z,3.04
2024-01-17T14:56:15.885Z,3.03
2024-01-17T14:58:43.832Z,3.01
2024-01-17T15:01:11.647Z,3.00
2024-01-17T15:03:40.031Z,3.00
2024-01-17T15:06:09.546Z,3.02
2024-01-17T15:08:37.501Z,3.01
2024-01-17T15:11:05.637Z,3.00
2024-01-17T15:13:33.313Z,2.98
2024-01-17T15:16:01.280Z,2.95
2024-01-17T15:18:29.553Z,2.93
2024-01-17T15:20:57.543Z,2.92
2024-01-17T15:23:25.946Z,2.93
2024-01-17T15:25:54.890Z,2.91
2024-01-17T15:28:23.769Z,2.88
2024-01-17T15:30:51.640Z,2.87
2024-01-17T15:33:21.437Z,2.86
2024-01-17T15:35:51.513Z,2.84
2024-01-17T15:38:19.153Z,2.85
2024-01-17T15:40:57.626Z,2.86
2024-01-17T15:43:25.512Z,2.86
2024-01-17T15:45:53.611Z,2.87
2024-01-17T15:48:21.428Z,2.90
2024-01-17T15:50:49.561Z,2.95
2024-01-17T15:53:19.145Z,3.00
2024-01-17T15:55:46.889Z,3.05
2024-01-17T15:58:14.861Z,3.08
2024-01-17T16:00:44.539Z,3.10
2024-01-17T16:03:16.332Z,3.12
2024-01-17T16:05:45.082Z,3.14
2024-01-17T16:08:13.644Z,3.13
2024-01-17T16:10:41.279Z,3.12
2024-01-17T16:13:09.536Z,3.11
2024-01-17T16:15:38.379Z,3.11
2024-01-17T16:18:07.709Z,3.12
2024-01-17T16:20:35.446Z,3.15
2024-01-17T16:23:03.147Z,3.21
2024-01-17T16:25:31.023Z,3.28
2024-01-17T16:27:59.605Z,3.34
2024-01-17T16:30:27.551Z,3.39
2024-01-17T16:32:58.446Z,3.45
2024-01-17T16:35:27.961Z,3.50
2024-01-17T16:37:56.258Z,3.52
2024-01-17T16:40:23.850Z,3.56
2024-01-17T16:42:52.004Z,3.59
2024-01-17T16:45:19.846Z,3.59
2024-01-17T16:47:48.334Z,3.55
2024-01-17T16:50:17.414Z,3.50
2024-01-17T16:52:46.469Z,3.41
2024-01-17T16:55:18.018Z,3.33
2024-01-17T16:57:46.284Z,3.30
2024-01-17T17:00:14.998Z,3.29
2024-01-17T17:02:43.977Z,3.28
2024-01-17T17:05:13.018Z,3.21
2024-01-17T17:07:40.825Z,3.15
2024-01-17T17:10:09.328Z,3.10
2024-01-17T17:12:37.803Z,3.04
2024-01-17T17:15:07.549Z,2.95
2024-01-17T17:17:35.890Z,2.92
2024-01-17T17:20:04.160Z,2.91
2024-01-17T17:22:37.668Z,2.93
2024-01-17T17:25:07.537Z,2.99
2024-01-17T17:27:36.340Z,3.03
2024-01-17T17:30:06.090Z,3.01
2024-01-17T17:32:35.300Z,3.02
2024-01-17T17:35:02.913Z,3.06
2024-01-17T17:37:30.768Z,3.12
2024-01-17T17:39:59.467Z,3.12
2024-01-17T17:42:27.250Z,3.14
2024-01-17T17:44:54.827Z,3.15
2024-01-17T17:47:23.159Z,3.18
2024-01-17T17:49:52.024Z,3.17
2024-01-17T17:52:20.117Z,3.17
2024-01-17T17:54:47.997Z,3.17
2024-01-17T17:57:15.829Z,3.18
2024-01-17T17:59:45.105Z,3.19
2024-01-17T18:02:13.965Z,3.16
2024-01-17T18:04:41.803Z,3.14
2024-01-17T18:07:10.025Z,3.12
2024-01-17T18:09:37.656Z,3.07
2024-01-17T18:12:05.821Z,3.01
2024-01-17T18:14:34.306Z,2.96
2024-01-17T18:17:01.978Z,2.95
2024-01-17T18:19:29.675Z,2.94
2024-01-17T18:21:57.290Z,2.96
2024-01-17T18:24:25.049Z,2.98
2024-01-17T18:26:52.956Z,2.99
2024-01-17T18:29:22.022Z,3.01
2024-01-17T18:31:49.671Z,3.00
2024-01-17T18:34:18.369Z,2.98
2024-01-17T18:36:46.090Z,2.96
2024-01-17T18:39:15.977Z,2.94
2024-01-17T18:41:44.363Z,2.89
2024-01-17T18:44:12.592Z,2.84
2024-01-17T18:46:42.559Z,2.80
2024-01-17T18:49:11.556Z,2.80
2024-01-17T18:51:40.005Z,2.80
2024-01-17T18:54:26.111Z,2.80
2024-01-17T18:56:53.875Z,2.79
2024-01-17T18:59:22.048Z,2.80
2024-01-17T19:01:50.115Z,2.81
2024-01-17T19:04:18.166Z,2.82
2024-01-17T19:06:45.866Z,2.84
2024-01-17T19:09:18.536Z,2.88
2024-01-17T19:11:48.313Z,2.94
2024-01-17T19:14:18.679Z,3.03
2024-01-17T19:16:46.392Z,3.16
2024-01-17T19:19:14.567Z,3.27
2024-01-17T19:21:42.872Z,3.37
2024-01-17T19:24:11.577Z,3.46
2024-01-17T19:26:40.345Z,3.54
2024-01-17T19:29:10.137Z,3.60
2024-01-17T19:31:37.950Z,3.62
2024-01-17T19:34:05.883Z,3.60
2024-01-17T19:36:34.877Z,3.59
2024-01-17T19:39:03.396Z,3.60
2024-01-17T19:41:31.277Z,3.60
2024-01-17T19:43:58.876Z,3.57
2024-01-17T19:46:26.556Z,3.52
2024-01-17T19:48:57.181Z,3.49
2024-01-17T19:51:28.491Z,3.50
2024-01-17T19:53:58.401Z,3.53
2024-01-17T19:56:28.134Z,3.57
2024-01-17T19:58:55.961Z,3.63
2024-01-17T20:01:23.710Z,3.70
2024-01-17T20:03:51.761Z,3.77
2024-01-17T20:06:23.703Z,3.90
2024-01-17T20:08:51.857Z,4.02
2024-01-17T20:11:21.128Z,4.12
2024-01-17T20:13:48.641Z,4.19
2024-01-17T20:16:17.610Z,4.24
2024-01-17T20:18:46.392Z,4.30
2024-01-17T20:21:22.917Z,4.34
2024-01-17T20:23:53.480Z,4.38
2024-01-17T20:26:22.450Z,4.42
2024-01-17T20:28:50.154Z,4.46
2024-01-17T20:31:18.476Z,4.50
2024-01-17T20:33:46.181Z,4.54
2024-01-17T20:36:16.873Z,4.55
2024-01-17T20:38:44.948Z,4.55
2024-01-17T20:41:18.731Z,4.51
2024-01-17T20:43:46.975Z,4.45
2024-01-17T20:46:17.162Z,4.32
2024-01-17T20:48:45.483Z,4.19
2024-01-17T20:51:26.714Z,4.10
2024-01-17T20:53:54.676Z,4.04
2024-01-17T20:56:23.830Z,3.99
2024-01-17T20:58:55.501Z,3.94
2024-01-17T21:01:30.912Z,3.91
2024-01-17T21:03:59.585Z,3.88
2024-01-17T21:06:27.828Z,3.87
2024-01-17T21:08:56.929Z,3.88
2024-01-17T21:11:24.554Z,3.91
2024-01-17T21:13:52.242Z,3.91
2024-01-17T21:16:20.597Z,3.87
2024-01-17T21:18:48.384Z,3.84
2024-01-17T21:21:16.137Z,3.83
2024-01-17T21:23:44.338Z,3.79
2024-01-17T21:26:22.252Z,3.80
2024-01-17T21:28:49.944Z,3.81
2024-01-17T21:31:22.859Z,3.72
2024-01-17T21:33:50.961Z,3.64
2024-01-17T21:36:36.972Z,3.57
2024-01-17T21:39:05.467Z,3.54
2024-01-17T21:41:33.269Z,3.53
2024-01-17T21:44:00.825Z,3.49
2024-01-17T21:46:31.447Z,3.48
2024-01-17T21:48:59.235Z,3.50
2024-01-17T21:51:27.260Z,3.52
2024-01-17T21:53:55.043Z,3.54
2024-01-17T21:56:22.600Z,3.56
2024-01-17T21:58:51.321Z,3.59
2024-01-17T22:01:18.978Z,3.60
2024-01-17T22:03:46.616Z,3.61
2024-01-17T22:06:15.423Z,3.63
2024-01-17T22:08:49.169Z,3.66
2024-01-17T22:11:23.515Z,3.72
2024-01-17T22:13:50.969Z,3.77
2024-01-17T22:16:18.731Z,3.82
2024-01-17T22:18:46.397Z,3.87
2024-01-17T22:21:14.344Z,3.96
2024-01-17T22:23:42.220Z,4.04
2024-01-17T22:26:09.868Z,4.08
2024-01-17T22:28:37.563Z,4.11
2024-01-17T22:31:06.042Z,4.13
2024-01-17T22:33:33.746Z,4.11
2024-01-17T22:36:01.400Z,4.10
2024-01-17T22:38:29.646Z,4.07
2024-01-17T22:40:57.426Z,4.05
2024-01-17T22:43:25.208Z,4.03
2024-01-17T22:45:52.571Z,4.03
2024-01-17T22:48:20.540Z,4.03
2024-01-17T22:50:48.629Z,4.07
2024-01-17T22:53:16.554Z,4.10
2024-01-17T22:55:44.393Z,4.10
2024-01-17T22:58:12.381Z,4.10
2024-01-17T23:01:17.521Z,4.10
2024-01-17T23:03:47.329Z,4.14
2024-01-17T23:06:18.620Z,4.18
2024-01-17T23:08:47.682Z,4.21
2024-01-17T23:11:24.058Z,4.22
2024-01-17T23:13:54.502Z,4.27
2024-01-17T23:16:24.164Z,4.30
2024-01-17T23:18:52.962Z,4.34
2024-01-17T23:21:21.507Z,4.38
2024-01-17T23:23:49.724Z,4.42
2024-01-17T23:26:17.887Z,4.45
2024-01-17T23:28:45.763Z,4.49
2024-01-17T23:31:13.509Z,4.52
2024-01-17T23:33:41.343Z,4.54
2024-01-17T23:36:09.699Z,4.55
2024-01-17T23:38:38.532Z,4.56
2024-01-17T23:41:06.413Z,4.59
2024-01-17T23:43:37.163Z,4.60
2024-01-17T23:46:04.928Z,4.61
2024-01-17T23:48:32.724Z,4.63
2024-01-17T23:51:00.550Z,4.63
2024-01-17T23:53:29.146Z,4.66
2024-01-17T23:55:57.031Z,4.69
2024-01-17T23:58:24.654Z,4.72
